createdAt,value
2022-08-07T00:01:12.679Z,100.00
2022-08-07T00:03:51.634Z,100.00
2022-08-07T00:06:18.588Z,100.00
2022-08-07T00:08:56.049Z,100.00
2022-08-07T00:11:30.051Z,100.00
2022-08-07T00:13:59.758Z,100.00
2022-08-07T00:16:28.078Z,100.00
2022-08-07T00:18:54.941Z,100.00
2022-08-07T00:21:56.944Z,100.00
2022-08-07T00:24:08.824Z,100.00
2022-08-07T00:26:49.245Z,100.00
2022-08-07T00:29:25.997Z,100.00
2022-08-07T00:32:01.951Z,100.00
2022-08-07T00:34:30.364Z,100.00
2022-08-07T00:36:59.042Z,100.00
2022-08-07T00:39:26.917Z,100.00
2022-08-07T00:42:01.728Z,100.00
2022-08-07T00:44:33.043Z,100.00
2022-08-07T00:46:59.946Z,100.00
2022-08-07T00:50:19.781Z,100.00
2022-08-07T00:52:13.025Z,100.00
2022-08-07T00:54:40.541Z,100.00
2022-08-07T00:57:07.466Z,100.00
2022-08-07T00:59:37.444Z,100.00
2022-08-07T01:02:08.857Z,100.00
2022-08-07T01:04:43.164Z,100.00
2022-08-07T01:07:12.077Z,100.00
2022-08-07T01:10:04.586Z,100.00
2022-08-07T01:12:29.973Z,100.00
2022-08-07T01:15:01.397Z,100.00
2022-08-07T01:17:30.831Z,100.00
2022-08-07T01:20:04.789Z,100.00
2022-08-07T01:22:31.762Z,100.00
2022-08-07T01:25:00.846Z,100.00
2022-08-07T01:27:32.131Z,100.00
2022-08-07T01:29:59.930Z,100.00
2022-08-07T01:32:27.835Z,100.00
2022-08-07T01:34:55.852Z,100.00
2022-08-07T01:37:23.947Z,100.00
2022-08-07T01:39:50.759Z,100.00
2022-08-07T01:42:39.455Z,100.00
2022-08-07T01:45:15.697Z,100.00
2022-08-07T01:48:20.438Z,100.00
2022-08-07T01:50:30.470Z,100.00
2022-08-07T01:52:58.758Z,100.00
2022-08-07T01:55:33.501Z,100.00
2022-08-07T01:58:05.857Z,100.00
2022-08-07T02:00:38.813Z,100.00
2022-08-07T02:03:22.022Z,100.00
2022-08-07T02:05:59.256Z,100.00
2022-08-07T02:08:27.975Z,100.00
2022-08-07T02:10:59.275Z,100.00
2022-08-07T02:13:58.278Z,100.00
2022-08-07T02:16:18.169Z,100.00
2022-08-07T02:18:48.125Z,100.00
2022-08-07T02:21:19.789Z,100.00
2022-08-07T02:23:47.970Z,100.00
2022-08-07T02:26:32.930Z,100.00
2022-08-07T02:29:03.096Z,100.00
2022-08-07T02:31:32.545Z,100.00
2022-08-07T02:34:10.987Z,100.00
2022-08-07T02:36:41.189Z,100.00
2022-08-07T02:39:16.584Z,100.00
2022-08-07T02:41:47.368Z,100.00
2022-08-07T02:44:18.497Z,100.00
2022-08-07T02:46:52.762Z,100.00
2022-08-07T02:49:28.950Z,100.00
2022-08-07T02:52:10.252Z,100.00
2022-08-07T02:54:42.742Z,100.00
2022-08-07T02:57:13.550Z,100.00
2022-08-07T02:59:54.906Z,100.00
2022-08-07T03:02:28.374Z,100.00
2022-08-07T03:04:56.393Z,100.00
2022-08-07T03:07:58.981Z,100.00
2022-08-07T03:10:11.876Z,100.00
2022-08-07T03:12:41.943Z,100.00
2022-08-07T03:15:10.760Z,100.00
2022-08-07T03:17:53.704Z,100.00
2022-08-07T03:20:21.841Z,100.00
2022-08-07T03:22:50.550Z,100.00
2022-08-07T03:25:21.133Z,100.00
2022-08-07T03:27:59.318Z,100.00
2022-08-07T03:30:27.370Z,100.00
2022-08-07T03:32:58.698Z,100.00
2022-08-07T03:35:28.050Z,100.00
2022-08-07T03:38:13.309Z,100.00
2022-08-07T03:40:40.441Z,100.00
2022-08-07T03:43:14.484Z,100.00
2022-08-07T03:45:43.443Z,100.00
2022-08-07T03:48:11.612Z,100.00
2022-08-07T03:50:39.023Z,100.00
2022-08-07T03:53:10.578Z,100.00
2022-08-07T03:55:53.130Z,100.00
2022-08-07T03:58:33.395Z,100.00
2022-08-07T04:01:07.591Z,100.00
2022-08-07T04:03:49.824Z,100.00
2022-08-07T04:06:37.831Z,100.00
2022-08-07T04:09:05.823Z,100.00
2022-08-07T04:12:25.501Z,100.00
2022-08-07T04:14:37.814Z,100.00
2022-08-07T04:17:19.835Z,100.00
2022-08-07T04:19:55.436Z,100.00
2022-08-07T04:22:28.956Z,100.00
2022-08-07T04:24:58.878Z,100.00
2022-08-07T04:27:28.519Z,100.00
2022-08-07T04:30:04.496Z,100.00
2022-08-07T04:32:34.585Z,100.00
2022-08-07T04:35:05.760Z,100.00
2022-08-07T04:38:00.779Z,100.00
2022-08-07T04:40:20.798Z,100.00
2022-08-07T04:42:52.379Z,100.00
2022-08-07T04:45:57.609Z,100.00
2022-08-07T04:48:17.266Z,100.00
2022-08-07T04:50:58.813Z,100.00
2022-08-07T04:54:05.262Z,100.00
2022-08-07T04:58:15.072Z,100.00
2022-08-07T05:00:38.727Z,100.00
2022-08-07T05:04:00.297Z,100.00
2022-08-07T05:06:21.918Z,100.00
2022-08-07T05:09:28.017Z,100.00
2022-08-07T05:12:15.573Z,100.00
2022-08-07T05:15:04.073Z,100.00
2022-08-07T05:17:52.020Z,100.00
2022-08-07T05:20:26.861Z,100.00
2022-08-07T05:22:58.102Z,100.00
2022-08-07T05:26:08.802Z,100.00
2022-08-07T05:28:22.677Z,100.00
2022-08-07T05:30:52.271Z,100.00
2022-08-07T05:33:20.815Z,100.00
2022-08-07T05:35:51.201Z,100.00
2022-08-07T05:39:00.331Z,100.00
2022-08-07T05:41:14.416Z,100.00
2022-08-07T05:44:01.293Z,100.00
2022-08-07T05:46:38.283Z,100.00
2022-08-07T05:49:12.604Z,100.00
2022-08-07T05:51:42.299Z,100.00
2022-08-07T05:54:30.199Z,100.00
2022-08-07T05:56:57.985Z,100.00
2022-08-07T05:59:27.292Z,100.00
2022-08-07T06:01:55.964Z,100.00
2022-08-07T06:04:29.794Z,100.00
2022-08-07T06:07:03.886Z,100.00
2022-08-07T06:09:44.792Z,100.00
2022-08-07T06:12:12.441Z,100.00
2022-08-07T06:14:43.079Z,95.77
2022-08-07T06:17:19.255Z,95.17
2022-08-07T06:20:03.437Z,97.23
2022-08-07T06:22:38.341Z,88.96
2022-08-07T06:25:06.568Z,84.44
2022-08-07T06:27:44.215Z,83.41
2022-08-07T06:30:36.102Z,84.32
2022-08-07T06:33:09.951Z,82.36
2022-08-07T06:35:45.600Z,83.10
2022-08-07T06:38:19.234Z,80.60
2022-08-07T06:40:51.126Z,80.41
2022-08-07T06:43:23.607Z,81.51
2022-08-07T06:45:50.844Z,81.29
2022-08-07T06:48:24.970Z,76.65
2022-08-07T06:50:54.836Z,80.10
2022-08-07T06:55:27.765Z,73.85
2022-08-07T06:56:15.020Z,69.07
2022-08-07T07:00:10.353Z,69.77
2022-08-07T07:01:44.043Z,66.43
2022-08-07T07:04:28.019Z,64.67
2022-08-07T07:07:10.745Z,66.66
2022-08-07T07:09:47.686Z,69.30
2022-08-07T07:12:33.403Z,68.81
2022-08-07T07:15:23.624Z,67.53
2022-08-07T07:18:05.596Z,67.80
2022-08-07T07:20:36.938Z,67.22
2022-08-07T07:24:09.624Z,65.94
2022-08-07T07:26:33.238Z,65.50
2022-08-07T07:29:40.117Z,64.27
2022-08-07T07:31:47.043Z,65.84
2022-08-07T07:34:18.160Z,64.35
2022-08-07T07:36:48.057Z,61.62
2022-08-07T07:39:25.536Z,67.25
2022-08-07T07:42:12.940Z,63.50
2022-08-07T07:44:44.555Z,62.91
2022-08-07T07:47:24.007Z,64.83
2022-08-07T07:50:34.218Z,62.51
2022-08-07T07:52:41.945Z,60.50
2022-08-07T07:55:11.473Z,60.25
2022-08-07T07:57:52.083Z,61.57
2022-08-07T08:00:29.448Z,61.41
2022-08-07T08:03:06.194Z,61.58
2022-08-07T08:05:50.977Z,62.54
2022-08-07T08:08:35.776Z,64.85
2022-08-07T08:11:05.647Z,63.87
2022-08-07T08:13:55.508Z,64.07
2022-08-07T08:16:40.205Z,61.28
2022-08-07T08:19:18.170Z,55.96
2022-08-07T08:22:17.378Z,55.88
2022-08-07T08:25:24.782Z,56.02
2022-08-07T08:27:57.163Z,56.17
2022-08-07T08:30:29.633Z,55.56
2022-08-07T08:33:01.857Z,54.65
2022-08-07T08:35:38.975Z,57.19
2022-08-07T08:38:08.755Z,54.93
2022-08-07T08:40:48.495Z,55.23
2022-08-07T08:43:21.374Z,51.48
2022-08-07T08:46:20.487Z,51.32
2022-08-07T08:49:07.216Z,53.92
2022-08-07T08:52:13.099Z,54.16
2022-08-07T08:54:41.537Z,55.06
2022-08-07T08:57:21.419Z,53.32
2022-08-07T09:00:01.611Z,52.79
2022-08-07T09:02:41.768Z,53.32
2022-08-07T09:05:37.789Z,54.90
2022-08-07T09:08:29.146Z,53.20
2022-08-07T09:11:11.321Z,52.50
2022-08-07T09:13:49.762Z,54.73
2022-08-07T09:16:40.813Z,56.58
2022-08-07T09:19:52.829Z,57.91
2022-08-07T09:24:53.562Z,62.99
2022-08-07T09:25:32.500Z,61.60
2022-08-07T09:30:00.559Z,59.84
2022-08-07T09:31:10.590Z,59.02
2022-08-07T09:33:58.010Z,58.40
2022-08-07T09:36:35.771Z,58.14
2022-08-07T09:39:54.663Z,56.96
2022-08-07T09:42:51.376Z,58.31
2022-08-07T09:47:26.146Z,57.39
2022-08-07T09:48:56.119Z,56.98
2022-08-07T09:52:10.428Z,57.43
2022-08-07T09:54:41.290Z,57.04
2022-08-07T09:57:57.630Z,56.48
2022-08-07T10:00:50.577Z,54.87
2022-08-07T10:04:05.331Z,54.05
2022-08-07T10:06:12.008Z,52.29
2022-08-07T10:09:03.113Z,52.06
2022-08-07T10:12:21.582Z,51.15
2022-08-07T10:15:26.343Z,50.22
2022-08-07T10:18:12.876Z,49.43
2022-08-07T10:21:50.643Z,48.66
2022-08-07T10:24:18.649Z,48.08
2022-08-07T10:27:10.964Z,47.32
2022-08-07T10:29:51.757Z,45.66
2022-08-07T10:32:37.087Z,44.30
2022-08-07T10:35:56.446Z,45.07
2022-08-07T10:38:49.574Z,46.41
2022-08-07T10:41:46.986Z,46.67
2022-08-07T10:44:37.633Z,44.44
2022-08-07T10:47:26.926Z,42.88
2022-08-07T10:50:11.551Z,45.72
2022-08-07T10:52:51.269Z,46.48
2022-08-07T10:55:36.990Z,43.62
2022-08-07T10:58:33.117Z,43.86
2022-08-07T11:01:35.873Z,45.71
2022-08-07T11:04:47.741Z,44.08
2022-08-07T11:07:59.387Z,42.16
2022-08-07T11:10:20.233Z,42.77
2022-08-07T11:13:02.812Z,42.29
2022-08-07T11:15:34.199Z,39.91
2022-08-07T11:18:20.353Z,41.77
2022-08-07T11:20:59.975Z,41.23
2022-08-07T11:23:45.359Z,42.30
2022-08-07T11:26:26.427Z,41.64
2022-08-07T11:29:41.181Z,41.32
2022-08-07T11:32:00.439Z,40.24
2022-08-07T11:34:42.364Z,39.92
2022-08-07T11:37:38.362Z,38.22
2022-08-07T11:40:37.741Z,38.30
2022-08-07T11:43:18.815Z,35.06
2022-08-07T11:46:32.676Z,37.07
2022-08-07T11:50:18.492Z,39.67
2022-08-07T11:52:29.515Z,35.78
2022-08-07T11:56:25.546Z,38.37
2022-08-07T11:58:33.570Z,40.84
2022-08-07T12:01:59.533Z,40.71
2022-08-07T12:04:40.205Z,41.18
2022-08-07T12:07:38.950Z,34.43
2022-08-07T12:10:15.565Z,37.56
2022-08-07T12:12:50.245Z,38.27
2022-08-07T12:15:46.637Z,37.66
2022-08-07T12:18:30.508Z,38.74
2022-08-07T12:21:06.559Z,41.59
2022-08-07T12:24:05.501Z,42.21
2022-08-07T12:26:50.566Z,43.15
2022-08-07T12:29:41.418Z,43.18
2022-08-07T12:32:31.102Z,42.80
2022-08-07T12:34:59.218Z,44.11
2022-08-07T12:38:09.720Z,45.58
2022-08-07T12:40:46.658Z,45.19
2022-08-07T12:43:10.124Z,44.34
2022-08-07T12:45:59.913Z,45.20
2022-08-07T12:48:41.438Z,44.78
2022-08-07T12:51:20.100Z,44.86
2022-08-07T12:54:37.399Z,45.79
2022-08-07T12:57:09.419Z,45.58
2022-08-07T12:59:54.501Z,46.16
2022-08-07T13:02:37.339Z,46.44
2022-08-07T13:06:03.795Z,46.58
2022-08-07T13:08:22.412Z,47.39
2022-08-07T13:11:05.979Z,48.01
2022-08-07T13:13:48.280Z,47.64
2022-08-07T13:16:31.177Z,46.86
2022-08-07T13:19:21.738Z,47.77
2022-08-07T13:22:19.308Z,47.71
2022-08-07T13:25:00.413Z,48.04
2022-08-07T13:28:11.617Z,47.67
2022-08-07T13:30:41.128Z,47.77
2022-08-07T13:34:33.414Z,47.77
2022-08-07T13:36:17.633Z,47.79
2022-08-07T13:39:12.931Z,47.55
2022-08-07T13:41:57.729Z,47.14
2022-08-07T13:44:34.404Z,45.79
2022-08-07T13:47:09.364Z,47.36
2022-08-07T13:50:33.870Z,47.36
2022-08-07T13:52:40.953Z,47.33
2022-08-07T13:55:26.328Z,48.21
2022-08-07T13:58:28.050Z,48.04
2022-08-07T14:01:07.977Z,49.17
2022-08-07T14:04:05.430Z,48.06
2022-08-07T14:06:37.101Z,48.45
2022-08-07T14:09:06.911Z,48.47
2022-08-07T14:11:53.339Z,48.44
2022-08-07T14:14:34.147Z,48.02
2022-08-07T14:17:13.164Z,47.30
2022-08-07T14:20:40.343Z,46.85
2022-08-07T14:22:42.660Z,47.92
2022-08-07T14:25:13.493Z,47.98
2022-08-07T14:28:12.520Z,47.56
2022-08-07T14:30:36.671Z,46.46
2022-08-07T14:33:08.841Z,47.23
2022-08-07T14:35:45.786Z,48.40
2022-08-07T14:38:26.793Z,47.96
2022-08-07T14:41:04.988Z,50.30
2022-08-07T14:43:57.646Z,49.61
2022-08-07T14:46:31.160Z,49.13
2022-08-07T14:49:55.771Z,48.84
2022-08-07T14:54:42.871Z,50.74
2022-08-07T14:57:19.525Z,52.53
2022-08-07T15:00:06.057Z,52.93
2022-08-07T15:05:23.508Z,50.37
2022-08-07T15:07:52.305Z,50.61
2022-08-07T15:10:26.300Z,50.63
2022-08-07T15:12:59.716Z,52.27
2022-08-07T15:21:59.548Z,52.19
2022-08-07T15:27:22.300Z,52.68
2022-08-07T15:30:08.408Z,54.40
2022-08-07T15:32:51.064Z,53.54
2022-08-07T15:36:01.844Z,54.19
2022-08-07T15:38:30.532Z,54.86
2022-08-07T15:44:05.048Z,56.59
2022-08-07T15:46:38.419Z,55.19
2022-08-07T15:49:12.465Z,55.51
2022-08-07T15:54:34.158Z,58.30
2022-08-07T15:57:02.824Z,56.39
2022-08-07T15:59:39.972Z,56.21
2022-08-07T16:02:22.339Z,57.71
2022-08-07T16:04:57.828Z,58.80
2022-08-07T16:08:28.995Z,58.44
2022-08-07T16:10:20.716Z,59.30
2022-08-07T16:13:01.340Z,59.69
2022-08-07T16:15:57.284Z,57.99
2022-08-07T16:19:14.799Z,58.31
2022-08-07T16:22:08.745Z,60.46
2022-08-07T16:25:04.992Z,59.56
2022-08-07T16:28:06.289Z,60.94
2022-08-07T16:30:50.030Z,60.42
2022-08-07T16:34:03.123Z,60.03
2022-08-07T16:36:32.285Z,59.88
2022-08-07T16:39:33.854Z,58.93
2022-08-07T16:42:41.552Z,60.50
2022-08-07T16:46:33.694Z,60.70
2022-08-07T16:49:04.360Z,60.88
2022-08-07T16:52:48.692Z,62.23
2022-08-07T16:55:17.186Z,62.92
2022-08-07T16:58:08.001Z,62.80
2022-08-07T17:00:55.107Z,63.24
2022-08-07T17:03:58.163Z,64.56
2022-08-07T17:06:46.477Z,63.60
2022-08-07T17:10:06.648Z,63.71
2022-08-07T17:12:44.034Z,65.29
2022-08-07T17:15:15.452Z,65.20
2022-08-07T17:17:48.238Z,65.34
2022-08-07T17:20:35.512Z,66.46
2022-08-07T17:23:16.918Z,67.40
2022-08-07T17:26:02.266Z,68.67
2022-08-07T17:28:35.471Z,69.62
2022-08-07T17:31:20.874Z,70.82
2022-08-07T17:34:18.028Z,71.85
2022-08-07T17:36:59.803Z,72.45
2022-08-07T17:40:03.151Z,73.61
2022-08-07T17:42:59.203Z,74.12
2022-08-07T17:45:35.252Z,74.00
2022-08-07T17:48:31.005Z,73.46
2022-08-07T17:51:23.145Z,73.61
2022-08-07T17:54:06.472Z,71.94
2022-08-07T17:57:18.524Z,72.24
2022-08-07T17:59:52.255Z,72.55
2022-08-07T18:02:56.543Z,73.38
2022-08-07T18:06:01.499Z,72.45
2022-08-07T18:08:25.581Z,71.65
2022-08-07T18:12:16.110Z,72.71
2022-08-07T18:14:24.156Z,72.96
2022-08-07T18:17:07.478Z,73.05
2022-08-07T18:21:08.886Z,73.37
2022-08-07T18:22:43.687Z,74.03
2022-08-07T18:25:39.350Z,74.09
2022-08-07T18:28:36.030Z,75.09
2022-08-07T18:31:50.254Z,76.89
2022-08-07T18:35:00.565Z,77.19
2022-08-07T18:38:56.459Z,78.15
2022-08-07T18:40:57.685Z,79.18
2022-08-07T18:43:48.868Z,79.33
2022-08-07T18:46:26.653Z,79.53
2022-08-07T18:50:30.027Z,79.48
2022-08-07T18:52:38.237Z,81.33
2022-08-07T18:55:41.769Z,82.25
2022-08-07T18:58:22.398Z,82.03
2022-08-07T19:02:17.001Z,82.52
2022-08-07T19:04:09.530Z,83.16
2022-08-07T19:06:55.110Z,84.41
2022-08-07T19:09:55.577Z,84.82
2022-08-07T19:12:53.459Z,85.38
2022-08-07T19:16:05.330Z,86.05
2022-08-07T19:18:35.215Z,86.58
2022-08-07T19:21:43.945Z,86.70
2022-08-07T19:24:46.321Z,89.33
2022-08-07T19:28:57.315Z,88.63
2022-08-07T19:31:00.909Z,90.13
2022-08-07T19:33:10.122Z,90.76
2022-08-07T19:35:42.491Z,90.50
2022-08-07T19:38:17.038Z,90.97
2022-08-07T19:40:49.375Z,94.39
2022-08-07T19:43:43.366Z,94.62
2022-08-07T19:46:22.513Z,97.70
2022-08-07T19:49:02.580Z,98.12
2022-08-07T19:51:53.436Z,99.09
2022-08-07T19:54:35.069Z,99.72
2022-08-07T19:57:59.983Z,99.20
2022-08-07T20:00:02.097Z,100.00
2022-08-07T20:02:34.497Z,100.00
2022-08-07T20:05:07.964Z,100.00
2022-08-07T20:07:47.480Z,100.00
2022-08-07T20:10:35.275Z,100.00
2022-08-07T20:13:23.663Z,100.00
2022-08-07T20:15:57.656Z,100.00
2022-08-07T20:18:33.005Z,100.00
2022-08-07T20:21:03.278Z,100.00
2022-08-07T20:23:57.696Z,100.00
2022-08-07T20:26:44.719Z,100.00
2022-08-07T20:29:46.753Z,100.00
2022-08-07T20:32:05.690Z,100.00
2022-08-07T20:34:50.851Z,100.00
2022-08-07T20:37:25.148Z,100.00
2022-08-07T20:40:03.685Z,100.00
2022-08-07T20:42:32.442Z,100.00
2022-08-07T20:45:01.259Z,100.00
2022-08-07T20:47:56.404Z,100.00
2022-08-07T20:50:20.686Z,100.00
2022-08-07T20:52:51.600Z,100.00
2022-08-07T20:55:23.818Z,100.00
2022-08-07T20:58:02.578Z,100.00
2022-08-07T21:00:47.208Z,100.00
2022-08-07T21:03:18.891Z,100.00
2022-08-07T21:05:56.539Z,100.00
2022-08-07T21:08:37.191Z,100.00
2022-08-07T21:11:10.483Z,100.00
2022-08-07T21:13:57.226Z,100.00
2022-08-07T21:16:33.275Z,100.00
2022-08-07T21:19:00.387Z,100.00
2022-08-07T21:21:33.233Z,100.00
2022-08-07T21:24:47.876Z,100.00
2022-08-07T21:27:18.551Z,100.00
2022-08-07T21:29:56.957Z,100.00
2022-08-07T21:32:48.611Z,100.00
2022-08-07T21:35:34.586Z,100.00
2022-08-07T21:38:44.460Z,100.00
2022-08-07T21:41:38.272Z,100.00
2022-08-07T21:44:54.022Z,100.00
2022-08-07T21:47:25.828Z,100.00
2022-08-07T21:50:08.325Z,100.00
2022-08-07T21:52:54.729Z,100.00
2022-08-07T21:55:28.242Z,100.00
2022-08-07T21:58:29.989Z,100.00
2022-08-07T22:02:10.420Z,100.00
2022-08-07T22:04:51.215Z,100.00
2022-08-07T22:07:22.006Z,100.00
2022-08-07T22:09:55.399Z,100.00
2022-08-07T22:12:32.361Z,100.00
2022-08-07T22:16:43.878Z,100.00
2022-08-07T22:18:28.537Z,100.00
2022-08-07T22:21:05.739Z,100.00
2022-08-07T22:23:47.413Z,100.00
2022-08-07T22:26:38.045Z,100.00
2022-08-07T22:29:37.936Z,100.00
2022-08-07T22:32:35.646Z,100.00
2022-08-07T22:35:04.864Z,100.00
2022-08-07T22:38:25.815Z,100.00
2022-08-07T22:40:59.983Z,100.00
2022-08-07T22:43:39.269Z,100.00
2022-08-07T22:47:04.221Z,100.00
2022-08-07T22:49:54.322Z,100.00
2022-08-07T22:52:36.786Z,100.00
2022-08-07T22:55:30.081Z,100.00
2022-08-07T22:58:37.739Z,100.00
2022-08-07T23:01:30.619Z,100.00
2022-08-07T23:04:32.253Z,100.00
2022-08-07T23:07:33.659Z,100.00
2022-08-07T23:10:41.978Z,100.00
2022-08-07T23:13:21.135Z,100.00
2022-08-07T23:16:44.421Z,100.00
2022-08-07T23:19:52.094Z,100.00
2022-08-07T23:22:56.797Z,100.00
2022-08-07T23:25:47.797Z,100.00
2022-08-07T23:28:54.389Z,100.00
2022-08-07T23:32:50.162Z,100.00
2022-08-07T23:34:51.052Z,100.00
2022-08-07T23:37:22.734Z,100.00
2022-08-07T23:40:11.161Z,100.00
2022-08-07T23:43:03.407Z,100.00
2022-08-07T23:46:10.357Z,100.00
2022-08-07T23:49:50.596Z,100.00
2022-08-07T23:52:58.878Z,100.00
2022-08-07T23:55:52.436Z,100.00
2022-08-07T23:58:54.754Z,100.00
